createdAt,value
2022-09-06T00:00:40.804Z,1.80
2022-09-06T00:03:15.727Z,2.08
2022-09-06T00:05:46.832Z,2.00
2022-09-06T00:12:10.763Z,1.80
2022-09-06T00:14:45.903Z,1.65
2022-09-06T00:17:16.609Z,1.88
2022-09-06T00:19:48.836Z,1.80
2022-09-06T00:22:21.016Z,2.03
2022-09-06T00:24:55.673Z,1.58
2022-09-06T00:27:29.454Z,1.60
2022-09-06T00:30:04.725Z,1.70
2022-09-06T00:32:35.041Z,1.60
2022-09-06T00:35:06.389Z,1.60
2022-09-06T00:37:36.279Z,1.67
2022-09-06T00:40:06.869Z,1.55
2022-09-06T00:42:36.744Z,1.98
2022-09-06T00:45:13.003Z,1.80
2022-09-06T00:47:45.722Z,1.50
2022-09-06T00:50:18.605Z,1.70
2022-09-06T00:52:51.531Z,1.70
2022-09-06T00:55:24.139Z,1.63
2022-09-06T00:57:54.145Z,1.38
2022-09-06T01:00:26.992Z,1.40
2022-09-06T01:02:57.323Z,1.75
2022-09-06T01:05:39.141Z,1.63
2022-09-06T01:08:18.137Z,1.95
2022-09-06T01:11:19.634Z,1.60
2022-09-06T01:13:58.549Z,1.60
2022-09-06T01:16:38.950Z,1.60
2022-09-06T01:19:48.502Z,1.63
2022-09-06T01:22:35.977Z,1.92
2022-09-06T01:25:28.193Z,1.73
2022-09-06T01:28:38.244Z,1.40
2022-09-06T01:31:22.558Z,1.63
2022-09-06T01:34:01.592Z,1.58
2022-09-06T01:36:45.798Z,1.50
2022-09-06T01:39:27.981Z,1.50
2022-09-06T01:41:59.255Z,1.55
2022-09-06T01:44:33.268Z,2.05
2022-09-06T01:47:12.783Z,1.52
2022-09-06T01:49:54.771Z,1.50
2022-09-06T01:52:32.743Z,1.30
2022-09-06T01:55:18.502Z,1.38
2022-09-06T01:58:05.586Z,1.23
2022-09-06T02:00:45.035Z,1.67
2022-09-06T02:03:25.604Z,1.40
2022-09-06T02:06:00.960Z,1.50
2022-09-06T02:08:36.713Z,1.90
2022-09-06T02:11:10.388Z,3.25
2022-09-06T02:13:43.222Z,1.65
2022-09-06T02:16:21.021Z,1.80
2022-09-06T02:18:57.247Z,2.65
2022-09-06T02:21:32.963Z,1.48
2022-09-06T02:24:08.235Z,1.40
2022-09-06T02:26:41.541Z,1.45
2022-09-06T02:29:11.877Z,1.63
2022-09-06T02:31:48.200Z,1.35
2022-09-06T02:34:21.067Z,1.50
2022-09-06T02:36:51.622Z,1.40
2022-09-06T02:39:21.511Z,1.50
2022-09-06T02:41:51.646Z,1.75
2022-09-06T02:44:21.971Z,1.30
2022-09-06T02:46:57.142Z,1.50
2022-09-06T02:49:28.332Z,1.50
2022-09-06T02:51:58.638Z,1.40
2022-09-06T02:54:28.889Z,1.20
2022-09-06T02:56:58.731Z,1.27
2022-09-06T02:59:28.548Z,1.25
2022-09-06T03:02:01.599Z,1.98
2022-09-06T03:04:31.749Z,1.45
2022-09-06T03:07:02.133Z,1.50
2022-09-06T03:09:32.106Z,1.30
2022-09-06T03:12:02.074Z,1.75
2022-09-06T03:14:32.429Z,1.70
2022-09-06T03:17:05.188Z,1.67
2022-09-06T03:19:35.375Z,1.67
2022-09-06T03:22:05.237Z,1.70
2022-09-06T03:24:35.045Z,1.65
2022-09-06T03:27:05.147Z,1.75
2022-09-06T03:29:35.531Z,1.40
2022-09-06T03:32:09.382Z,1.52
2022-09-06T03:34:40.896Z,1.40
2022-09-06T03:37:11.485Z,1.48
2022-09-06T03:39:43.019Z,1.67
2022-09-06T03:42:13.605Z,1.50
2022-09-06T03:44:44.378Z,1.55
2022-09-06T03:47:19.550Z,1.40
2022-09-06T03:49:51.047Z,1.70
2022-09-06T03:52:21.081Z,1.52
2022-09-06T03:54:51.951Z,3.28
2022-09-06T03:57:22.448Z,1.40
2022-09-06T03:59:56.687Z,2.20
2022-09-06T04:02:29.398Z,1.75
2022-09-06T04:04:59.587Z,1.63
2022-09-06T04:07:29.490Z,1.70
2022-09-06T04:09:59.302Z,1.90
2022-09-06T04:12:29.541Z,1.90
2022-09-06T04:14:59.592Z,1.90
2022-09-06T04:17:32.156Z,2.00
2022-09-06T04:20:02.748Z,1.70
2022-09-06T04:22:32.770Z,1.75
2022-09-06T04:25:03.227Z,2.13
2022-09-06T04:27:33.121Z,1.90
2022-09-06T04:30:03.026Z,1.80
2022-09-06T04:32:35.908Z,2.00
2022-09-06T04:35:06.314Z,1.85
2022-09-06T04:37:36.676Z,3.58
2022-09-06T04:40:07.533Z,1.70
2022-09-06T04:42:38.249Z,1.80
2022-09-06T04:45:09.490Z,1.70
2022-09-06T04:47:42.374Z,1.50
2022-09-06T04:50:12.533Z,1.40
2022-09-06T04:52:42.744Z,1.90
2022-09-06T04:55:12.891Z,1.67
2022-09-06T04:57:46.592Z,1.88
2022-09-06T05:00:18.643Z,1.90
2022-09-06T05:02:51.427Z,1.80
2022-09-06T05:05:22.362Z,2.08
2022-09-06T05:07:54.746Z,1.83
2022-09-06T05:10:25.673Z,1.95
2022-09-06T05:12:57.202Z,1.88
2022-09-06T05:15:27.719Z,1.73
2022-09-06T05:18:07.757Z,1.85
2022-09-06T05:20:37.684Z,2.15
2022-09-06T05:23:07.939Z,1.70
2022-09-06T05:25:37.799Z,1.73
2022-09-06T05:28:07.648Z,1.75
2022-09-06T05:30:37.992Z,2.05
2022-09-06T05:33:10.640Z,1.55
2022-09-06T05:35:41.158Z,1.80
2022-09-06T05:38:10.999Z,1.77
2022-09-06T05:40:41.198Z,1.92
2022-09-06T05:43:11.003Z,1.83
2022-09-06T05:45:44.027Z,2.20
2022-09-06T05:48:16.628Z,2.10
2022-09-06T05:50:46.758Z,1.83
2022-09-06T05:53:16.936Z,2.00
2022-09-06T05:55:47.010Z,2.10
2022-09-06T05:58:16.824Z,1.73
2022-09-06T06:00:46.841Z,2.05
2022-09-06T06:03:19.627Z,2.05
2022-09-06T06:05:49.705Z,2.05
2022-09-06T06:08:22.242Z,2.15
2022-09-06T06:10:52.070Z,1.83
2022-09-06T06:13:22.236Z,2.00
2022-09-06T06:15:52.433Z,1.67
2022-09-06T06:18:25.037Z,2.10
2022-09-06T06:20:55.572Z,2.40
2022-09-06T06:23:25.993Z,2.05
2022-09-06T06:25:56.911Z,1.90
2022-09-06T06:28:27.074Z,1.90
2022-09-06T06:30:57.286Z,1.70
2022-09-06T06:33:29.884Z,1.80
2022-09-06T06:36:01.869Z,2.08
2022-09-06T06:38:35.813Z,2.30
2022-09-06T06:41:07.371Z,2.42
2022-09-06T06:43:38.970Z,1.88
2022-09-06T06:46:11.056Z,1.80
2022-09-06T06:48:44.697Z,1.85
2022-09-06T06:51:16.822Z,1.60
2022-09-06T06:53:47.575Z,1.95
2022-09-06T06:56:19.539Z,2.70
2022-09-06T06:58:51.086Z,2.10
2022-09-06T07:01:22.952Z,2.00
2022-09-06T07:03:55.946Z,2.25
2022-09-06T07:09:18.305Z,1.90
2022-09-06T07:11:49.976Z,1.92
2022-09-06T07:14:20.465Z,1.83
2022-09-06T07:16:51.853Z,1.95
2022-09-06T07:22:14.366Z,1.80
2022-09-06T07:27:49.349Z,2.60
2022-09-06T07:30:20.943Z,2.20
2022-09-06T07:32:50.776Z,1.98
2022-09-06T07:35:25.046Z,2.47
2022-09-06T07:37:56.129Z,2.30
2022-09-06T07:40:27.356Z,2.20
2022-09-06T07:42:59.419Z,2.50
2022-09-06T07:45:29.851Z,2.30
2022-09-06T07:48:01.402Z,2.15
2022-09-06T07:50:51.197Z,2.13
2022-09-06T07:53:30.438Z,2.78
2022-09-06T07:56:02.796Z,2.70
2022-09-06T07:58:33.610Z,2.80
2022-09-06T08:01:21.678Z,2.40
2022-09-06T08:03:51.513Z,2.47
2022-09-06T08:06:25.257Z,3.33
2022-09-06T08:11:28.732Z,2.30
2022-09-06T08:14:00.256Z,2.58
2022-09-06T08:16:32.438Z,2.83
2022-09-06T08:19:04.015Z,2.17
2022-09-06T08:21:37.713Z,2.17
2022-09-06T08:24:11.345Z,3.20
2022-09-06T08:26:43.220Z,3.08
2022-09-06T08:29:14.523Z,2.60
2022-09-06T08:31:47.126Z,2.90
2022-09-06T08:34:17.834Z,2.90
2022-09-06T08:36:51.161Z,2.60
2022-09-06T08:39:21.544Z,2.60
2022-09-06T08:42:00.799Z,2.75
2022-09-06T08:44:56.925Z,2.70
2022-09-06T08:47:31.115Z,2.78
2022-09-06T08:50:05.480Z,3.10
2022-09-06T08:53:20.478Z,3.30
2022-09-06T08:55:57.785Z,2.97
2022-09-06T08:58:39.685Z,2.83
2022-09-06T09:01:15.451Z,2.75
2022-09-06T09:03:46.578Z,2.60
2022-09-06T09:06:16.387Z,2.72
2022-09-06T09:09:04.355Z,2.85
2022-09-06T09:11:36.107Z,2.90
2022-09-06T09:14:08.702Z,3.08
2022-09-06T09:16:38.789Z,3.20
2022-09-06T09:19:09.504Z,3.20
2022-09-06T09:21:40.853Z,3.30
2022-09-06T09:24:15.591Z,3.17
2022-09-06T09:26:52.181Z,3.08
2022-09-06T09:29:27.422Z,3.00
2022-09-06T09:31:59.291Z,2.90
2022-09-06T09:34:35.817Z,3.38
2022-09-06T09:40:15.711Z,3.20
2022-09-06T09:42:50.751Z,3.15
2022-09-06T09:45:30.171Z,2.92
2022-09-06T09:48:22.283Z,3.65
2022-09-06T09:50:59.712Z,3.53
2022-09-06T09:53:38.531Z,3.20
2022-09-06T09:56:31.797Z,3.60
2022-09-06T09:59:10.515Z,4.00
2022-09-06T10:01:43.728Z,3.47
2022-09-06T10:07:30.114Z,3.55
2022-09-06T10:10:13.801Z,3.20
2022-09-06T10:12:55.519Z,3.30
2022-09-06T10:15:36.382Z,3.88
2022-09-06T10:18:07.039Z,3.65
2022-09-06T10:20:43.753Z,3.95
2022-09-06T10:26:17.802Z,3.58
2022-09-06T10:28:55.800Z,3.50
2022-09-06T10:32:34.488Z,3.60
2022-09-06T10:39:17.992Z,3.55
2022-09-06T10:42:35.969Z,3.53
2022-09-06T10:50:17.276Z,3.63
2022-09-06T10:53:58.759Z,3.30
2022-09-06T10:57:08.222Z,3.72
2022-09-06T11:04:12.521Z,3.80
2022-09-06T11:11:05.129Z,3.67
2022-09-06T11:13:49.832Z,3.85
2022-09-06T11:16:32.618Z,3.63
2022-09-06T11:19:49.326Z,3.13
2022-09-06T11:23:00.537Z,3.70
2022-09-06T11:26:04.831Z,3.65
2022-09-06T11:28:41.097Z,3.40
2022-09-06T11:34:24.770Z,3.63
2022-09-06T11:37:00.507Z,3.47
2022-09-06T11:42:44.361Z,3.20
2022-09-06T11:45:21.724Z,3.75
2022-09-06T11:47:53.101Z,3.38
2022-09-06T11:51:03.018Z,4.15
2022-09-06T11:53:36.452Z,3.65
2022-09-06T11:56:31.827Z,3.70
2022-09-06T11:59:06.676Z,3.75
2022-09-06T12:01:59.151Z,4.00
2022-09-06T12:05:13.636Z,3.53
2022-09-06T12:08:14.081Z,3.97
2022-09-06T12:11:06.709Z,3.67
2022-09-06T12:13:52.765Z,3.83
2022-09-06T12:16:23.389Z,3.75
2022-09-06T12:19:04.365Z,4.03
2022-09-06T12:21:41.657Z,3.83
2022-09-06T12:24:32.700Z,4.78
2022-09-06T12:27:16.741Z,4.72
2022-09-06T12:29:58.134Z,3.70
2022-09-06T12:32:46.380Z,4.18
2022-09-06T12:39:13.834Z,3.92
2022-09-06T12:41:48.357Z,4.00
2022-09-06T12:44:39.719Z,3.97
2022-09-06T12:47:36.595Z,3.30
2022-09-06T12:50:36.287Z,4.00
2022-09-06T12:53:23.596Z,4.07
2022-09-06T12:56:07.031Z,3.92
2022-09-06T12:58:38.820Z,3.70
2022-09-06T13:01:19.302Z,4.10
2022-09-06T13:04:03.006Z,4.25
2022-09-06T13:06:38.891Z,4.15
2022-09-06T13:09:15.650Z,3.95
2022-09-06T13:11:49.159Z,3.72
2022-09-06T13:14:22.618Z,4.00
2022-09-06T13:16:57.828Z,3.80
2022-09-06T13:19:36.724Z,4.20
2022-09-06T13:22:11.581Z,4.35
2022-09-06T13:24:49.224Z,4.00
2022-09-06T13:27:26.496Z,4.18
2022-09-06T13:34:36.855Z,4.00
2022-09-06T13:37:10.833Z,3.92
2022-09-06T13:39:44.040Z,3.83
2022-09-06T13:42:42.180Z,4.30
2022-09-06T13:45:37.651Z,4.22
2022-09-06T13:48:38.570Z,3.70
2022-09-06T13:51:05.857Z,4.32
2022-09-06T13:53:36.565Z,4.10
2022-09-06T13:56:09.086Z,4.35
2022-09-06T13:58:39.804Z,4.13
2022-09-06T14:01:14.983Z,4.13
2022-09-06T14:04:00.492Z,4.03
2022-09-06T14:11:13.470Z,4.57
2022-09-06T14:14:16.723Z,4.10
2022-09-06T14:21:18.540Z,4.13
2022-09-06T14:24:45.418Z,4.28
2022-09-06T14:28:08.791Z,4.07
2022-09-06T14:30:56.330Z,4.30
2022-09-06T14:33:29.300Z,4.10
2022-09-06T14:36:01.174Z,4.20
2022-09-06T14:38:30.999Z,4.25
2022-09-06T14:41:09.069Z,4.50
2022-09-06T14:43:40.063Z,4.47
2022-09-06T14:46:13.832Z,4.07
2022-09-06T14:48:44.873Z,4.07
2022-09-06T14:51:27.301Z,4.00
2022-09-06T14:54:07.432Z,3.63
2022-09-06T15:00:19.867Z,4.30
2022-09-06T15:02:51.983Z,4.00
2022-09-06T15:05:25.293Z,3.90
2022-09-06T15:07:55.758Z,4.20
2022-09-06T15:10:27.699Z,4.10
2022-09-06T15:13:01.366Z,5.60
2022-09-06T15:15:52.895Z,4.45
2022-09-06T15:18:24.514Z,4.22
2022-09-06T15:20:54.727Z,4.10
2022-09-06T15:23:27.106Z,4.35
2022-09-06T15:26:04.236Z,3.75
2022-09-06T15:37:19.009Z,3.92
2022-09-06T15:40:17.609Z,4.20
2022-09-06T15:43:42.702Z,3.90
2022-09-06T16:16:24.808Z,4.13
2022-09-06T16:19:01.694Z,4.05
2022-09-06T16:21:41.427Z,4.20
2022-09-06T16:24:15.966Z,4.45
2022-09-06T16:26:48.576Z,4.97
2022-09-06T16:29:20.846Z,4.10
2022-09-06T16:32:00.072Z,4.00
2022-09-06T16:36:48.160Z,9.70
2022-09-06T16:39:15.498Z,3.97
2022-09-06T16:41:53.852Z,4.18
2022-09-06T16:44:25.354Z,4.70
2022-09-06T16:47:01.169Z,3.92
2022-09-06T16:49:48.026Z,4.50
2022-09-06T16:52:32.134Z,4.45
2022-09-06T16:55:11.346Z,4.07
2022-09-06T16:57:48.215Z,4.28
2022-09-06T17:00:48.618Z,3.90
2022-09-06T17:03:22.324Z,4.30
2022-09-06T17:05:57.838Z,4.15
2022-09-06T17:08:56.130Z,3.90
2022-09-06T17:11:28.753Z,4.07
2022-09-06T17:14:29.979Z,3.90
2022-09-06T18:00:41.959Z,3.90
2022-09-06T18:03:12.885Z,4.00
2022-09-06T18:05:43.850Z,4.20
2022-09-06T18:08:15.869Z,3.58
2022-09-06T18:10:50.665Z,4.05
2022-09-06T18:13:44.021Z,5.22
2022-09-06T18:23:42.311Z,4.13
2022-09-06T18:29:56.253Z,4.10
2022-09-06T18:32:27.304Z,4.00
2022-09-06T18:35:30.078Z,4.07
2022-09-06T18:41:50.856Z,3.53
2022-09-06T18:44:21.691Z,3.90
2022-09-06T18:46:53.201Z,8.10
2022-09-06T18:49:23.568Z,4.38
2022-09-06T18:51:53.802Z,4.10
2022-09-06T18:54:24.733Z,3.50
2022-09-06T19:05:25.037Z,3.50
2022-09-06T19:08:29.920Z,3.70
2022-09-06T19:11:06.779Z,3.90
2022-09-06T19:30:45.335Z,3.67
2022-09-06T19:33:18.613Z,3.67
2022-09-06T19:36:10.460Z,3.38
2022-09-06T19:39:06.134Z,3.70
2022-09-06T19:41:48.522Z,3.92
2022-09-06T19:44:30.095Z,3.60
2022-09-06T19:51:11.661Z,3.95
2022-09-06T19:53:42.649Z,3.88
2022-09-06T19:56:13.634Z,3.78
2022-09-06T19:58:57.269Z,4.25
2022-09-06T20:01:53.592Z,3.72
2022-09-06T20:04:28.801Z,3.90
2022-09-06T20:07:09.016Z,3.70
2022-09-06T20:09:40.193Z,3.67
2022-09-06T20:12:12.167Z,3.35
2022-09-06T20:14:42.335Z,3.55
2022-09-06T20:17:32.762Z,3.70
2022-09-06T20:20:02.375Z,3.85
2022-09-06T20:22:34.972Z,3.38
2022-09-06T20:25:05.413Z,3.85
2022-09-06T20:27:35.278Z,4.00
2022-09-06T20:30:05.229Z,3.55
2022-09-06T20:32:35.619Z,3.30
2022-09-06T20:35:05.546Z,3.88
2022-09-06T20:37:38.896Z,4.07
2022-09-06T20:40:10.998Z,3.85
2022-09-06T20:42:42.367Z,3.38
2022-09-06T20:45:13.299Z,3.83
2022-09-06T20:47:43.209Z,3.63
2022-09-06T20:50:13.544Z,4.13
2022-09-06T20:52:45.988Z,3.67
2022-09-06T20:55:16.276Z,3.65
2022-09-06T20:57:46.237Z,4.18
2022-09-06T21:00:17.276Z,3.83
2022-09-06T21:02:47.536Z,3.60
2022-09-06T21:05:17.648Z,3.50
2022-09-06T21:07:50.107Z,3.60
2022-09-06T21:10:20.427Z,3.17
2022-09-06T21:12:50.337Z,3.30
2022-09-06T21:15:20.218Z,3.28
2022-09-06T21:17:50.475Z,3.20
2022-09-06T21:20:21.098Z,3.35
2022-09-06T21:22:53.943Z,3.22
2022-09-06T21:25:23.918Z,3.53
2022-09-06T21:27:55.855Z,3.35
2022-09-06T21:30:25.921Z,3.28
2022-09-06T21:32:57.911Z,3.30
2022-09-06T21:35:28.162Z,3.33
2022-09-06T21:38:01.208Z,3.25
2022-09-06T21:40:31.130Z,3.97
2022-09-06T21:43:05.420Z,3.10
2022-09-06T21:45:40.311Z,3.20
2022-09-06T21:48:10.695Z,3.50
2022-09-06T21:50:40.591Z,3.20
2022-09-06T21:53:13.117Z,3.17
2022-09-06T21:55:43.785Z,3.30
2022-09-06T21:58:15.405Z,3.10
2022-09-06T22:00:46.750Z,3.05
2022-09-06T22:03:16.695Z,3.10
2022-09-06T22:05:47.395Z,2.90
2022-09-06T22:08:22.421Z,3.13
2022-09-06T22:10:53.471Z,2.80
2022-09-06T22:13:23.962Z,3.13
2022-09-06T22:15:55.304Z,3.10
2022-09-06T22:18:25.726Z,2.70
2022-09-06T22:21:02.825Z,3.05
2022-09-06T22:23:35.707Z,3.25
2022-09-06T22:26:07.624Z,3.47
2022-09-06T22:28:52.878Z,2.90
2022-09-06T22:31:28.557Z,2.90
2022-09-06T22:34:17.893Z,2.90
2022-09-06T22:36:53.580Z,2.75
2022-09-06T22:39:26.817Z,3.10
2022-09-06T22:42:00.806Z,3.15
2022-09-06T22:44:30.930Z,2.80
2022-09-06T22:47:01.148Z,2.97
2022-09-06T22:49:31.253Z,2.78
2022-09-06T22:52:01.124Z,2.95
2022-09-06T22:54:33.956Z,3.17
2022-09-06T22:57:04.666Z,2.92
2022-09-06T22:59:37.959Z,2.75
2022-09-06T23:02:08.437Z,2.90
2022-09-06T23:04:39.347Z,2.67
2022-09-06T23:07:09.613Z,2.70
2022-09-06T23:09:43.716Z,2.60
2022-09-06T23:12:14.155Z,2.63
2022-09-06T23:14:44.870Z,2.60
2022-09-06T23:17:15.978Z,2.80
2022-09-06T23:19:47.228Z,2.80
2022-09-06T23:22:19.207Z,2.58
2022-09-06T23:24:53.542Z,2.72
2022-09-06T23:27:24.442Z,2.58
2022-09-06T23:29:55.823Z,2.25
2022-09-06T23:32:34.123Z,2.75
2022-09-06T23:35:06.187Z,2.90
2022-09-06T23:37:38.036Z,2.60
2022-09-06T23:40:13.622Z,2.95
2022-09-06T23:42:44.483Z,2.63
2022-09-06T23:45:15.759Z,2.42
2022-09-06T23:47:46.497Z,2.70
2022-09-06T23:50:17.615Z,3.13
2022-09-06T23:52:48.699Z,3.10
2022-09-06T23:55:22.594Z,2.60
2022-09-06T23:57:54.364Z,2.47
